sensor_id;sensor_type;location;lat;lon;timestamp;pressure;altitude;pressure_sealevel;temperature;humidity
57048;BME280;42934;54.294;18.598;2022-07-06T00:01:40;101129.34;;;13.43;75.79
57048;BME280;42934;54.294;18.598;2022-07-06T00:04:10;101125.69;;;13.22;76.72
57048;BME280;42934;54.294;18.598;2022-07-06T00:06:39;101125.31;;;12.83;79.04
57048;BME280;42934;54.294;18.598;2022-07-06T00:09:11;101128.28;;;12.73;79.75
57048;BME280;42934;54.294;18.598;2022-07-06T00:11:41;101128.78;;;12.58;81.98
57048;BME280;42934;54.294;18.598;2022-07-06T00:14:10;101138.97;;;12.69;81.01
57048;BME280;42934;54.294;18.598;2022-07-06T00:16:39;101131.34;;;12.86;79.97
57048;BME280;42934;54.294;18.598;2022-07-06T00:19:09;101137.44;;;12.88;79.28
57048;BME280;42934;54.294;18.598;2022-07-06T00:21:39;101136.06;;;13.02;79.33
57048;BME280;42934;54.294;18.598;2022-07-06T00:24:09;101140.31;;;13.06;78.45
57048;BME280;42934;54.294;18.598;2022-07-06T00:26:39;101139.50;;;12.79;78.64
57048;BME280;42934;54.294;18.598;2022-07-06T00:29:08;101138.72;;;12.77;79.87
57048;BME280;42934;54.294;18.598;2022-07-06T00:31:38;101130.13;;;12.70;80.32
57048;BME280;42934;54.294;18.598;2022-07-06T00:34:08;101120.66;;;12.64;79.81
57048;BME280;42934;54.294;18.598;2022-07-06T00:36:37;101120.28;;;12.50;80.38
57048;BME280;42934;54.294;18.598;2022-07-06T00:39:06;101115.59;;;12.32;81.52
57048;BME280;42934;54.294;18.598;2022-07-06T00:41:37;101122.13;;;12.20;81.10
57048;BME280;42934;54.294;18.598;2022-07-06T00:44:08;101122.53;;;12.34;82.16
57048;BME280;42934;54.294;18.598;2022-07-06T00:46:38;101120.47;;;12.44;82.63
57048;BME280;42934;54.294;18.598;2022-07-06T00:49:07;101114.09;;;12.51;81.10
57048;BME280;42934;54.294;18.598;2022-07-06T00:51:58;101110.09;;;12.39;81.42
57048;BME280;42934;54.294;18.598;2022-07-06T00:54:30;101110.03;;;12.41;81.08
57048;BME280;42934;54.294;18.598;2022-07-06T00:57:01;101107.56;;;12.36;82.04
57048;BME280;42934;54.294;18.598;2022-07-06T00:59:31;101107.88;;;12.54;81.32
57048;BME280;42934;54.294;18.598;2022-07-06T01:02:00;101112.22;;;12.55;80.99
57048;BME280;42934;54.294;18.598;2022-07-06T01:04:30;101107.69;;;12.58;81.50
57048;BME280;42934;54.294;18.598;2022-07-06T01:07:00;101098.28;;;12.51;81.60
57048;BME280;42934;54.294;18.598;2022-07-06T01:09:29;101106.59;;;12.65;81.59
57048;BME280;42934;54.294;18.598;2022-07-06T01:12:00;101107.56;;;12.63;80.70
57048;BME280;42934;54.294;18.598;2022-07-06T01:14:29;101109.91;;;12.70;80.68
57048;BME280;42934;54.294;18.598;2022-07-06T01:16:59;101104.28;;;12.81;79.80
57048;BME280;42934;54.294;18.598;2022-07-06T01:19:28;101108.56;;;12.85;79.90
57048;BME280;42934;54.294;18.598;2022-07-06T01:21:59;101109.44;;;12.84;79.50
57048;BME280;42934;54.294;18.598;2022-07-06T01:24:28;101110.25;;;12.86;79.33
57048;BME280;42934;54.294;18.598;2022-07-06T01:26:58;101109.63;;;12.80;80.09
57048;BME280;42934;54.294;18.598;2022-07-06T01:29:27;101101.50;;;12.86;80.09
57048;BME280;42934;54.294;18.598;2022-07-06T01:31:56;101104.38;;;12.78;80.33
57048;BME280;42934;54.294;18.598;2022-07-06T01:34:26;101106.00;;;12.82;80.35
57048;BME280;42934;54.294;18.598;2022-07-06T01:36:55;101108.44;;;12.88;79.97
57048;BME280;42934;54.294;18.598;2022-07-06T01:39:26;101099.88;;;12.82;80.54
57048;BME280;42934;54.294;18.598;2022-07-06T01:41:55;101105.13;;;12.57;81.54
57048;BME280;42934;54.294;18.598;2022-07-06T01:44:24;101097.25;;;12.55;81.86
57048;BME280;42934;54.294;18.598;2022-07-06T01:46:53;101099.34;;;12.45;82.15
57048;BME280;42934;54.294;18.598;2022-07-06T01:49:23;101099.28;;;12.47;82.42
57048;BME280;42934;54.294;18.598;2022-07-06T01:51:52;101094.44;;;12.35;82.55
57048;BME280;42934;54.294;18.598;2022-07-06T01:54:22;101096.63;;;12.22;82.79
57048;BME280;42934;54.294;18.598;2022-07-06T01:56:53;101091.03;;;12.04;83.60
57048;BME280;42934;54.294;18.598;2022-07-06T01:59:22;101093.88;;;11.97;84.22
57048;BME280;42934;54.294;18.598;2022-07-06T02:01:51;101088.59;;;11.98;85.09
57048;BME280;42934;54.294;18.598;2022-07-06T02:04:20;101092.59;;;12.10;83.95
57048;BME280;42934;54.294;18.598;2022-07-06T02:06:50;101096.81;;;12.16;83.85
57048;BME280;42934;54.294;18.598;2022-07-06T02:09:20;101093.84;;;12.26;84.37
57048;BME280;42934;54.294;18.598;2022-07-06T02:11:51;101087.25;;;12.40;83.42
57048;BME280;42934;54.294;18.598;2022-07-06T02:14:20;101092.91;;;12.54;82.74
57048;BME280;42934;54.294;18.598;2022-07-06T02:16:50;101092.06;;;12.54;82.71
57048;BME280;42934;54.294;18.598;2022-07-06T02:19:19;101086.78;;;12.54;82.64
57048;BME280;42934;54.294;18.598;2022-07-06T02:21:48;101086.91;;;12.50;82.84
57048;BME280;42934;54.294;18.598;2022-07-06T02:24:17;101087.91;;;12.46;82.87
57048;BME280;42934;54.294;18.598;2022-07-06T02:26:47;101087.09;;;12.44;83.23
57048;BME280;42934;54.294;18.598;2022-07-06T02:29:17;101091.38;;;12.47;82.92
57048;BME280;42934;54.294;18.598;2022-07-06T02:31:47;101098.28;;;12.51;82.98
57048;BME280;42934;54.294;18.598;2022-07-06T02:34:17;101091.25;;;12.52;82.92
57048;BME280;42934;54.294;18.598;2022-07-06T02:36:46;101092.19;;;12.49;83.31
57048;BME280;42934;54.294;18.598;2022-07-06T02:39:16;101088.59;;;12.52;83.21
57048;BME280;42934;54.294;18.598;2022-07-06T02:41:46;101091.22;;;12.53;83.04
57048;BME280;42934;54.294;18.598;2022-07-06T02:44:17;101087.53;;;12.57;82.85
57048;BME280;42934;54.294;18.598;2022-07-06T02:46:46;101093.03;;;12.51;82.79
57048;BME280;42934;54.294;18.598;2022-07-06T02:49:15;101097.44;;;12.50;82.49
57048;BME280;42934;54.294;18.598;2022-07-06T02:51:45;101093.13;;;12.48;82.74
57048;BME280;42934;54.294;18.598;2022-07-06T02:54:14;101091.47;;;12.44;83.09
57048;BME280;42934;54.294;18.598;2022-07-06T02:56:44;101100.22;;;12.46;83.09
57048;BME280;42934;54.294;18.598;2022-07-06T02:59:20;101094.28;;;12.39;83.30
57048;BME280;42934;54.294;18.598;2022-07-06T03:01:50;101095.16;;;12.40;83.04
57048;BME280;42934;54.294;18.598;2022-07-06T03:04:19;101096.09;;;12.37;83.26
57048;BME280;42934;54.294;18.598;2022-07-06T03:06:49;101098.50;;;12.45;82.58
57048;BME280;42934;54.294;18.598;2022-07-06T03:09:18;101094.94;;;12.46;83.35
57048;BME280;42934;54.294;18.598;2022-07-06T03:11:47;101092.59;;;12.38;83.43
57048;BME280;42934;54.294;18.598;2022-07-06T03:14:16;101088.59;;;12.52;83.51
57048;BME280;42934;54.294;18.598;2022-07-06T03:16:50;101084.16;;;12.54;83.67
57048;BME280;42934;54.294;18.598;2022-07-06T03:19:20;101079.84;;;12.51;84.12
57048;BME280;42934;54.294;18.598;2022-07-06T03:21:50;101075.09;;;12.62;83.83
57048;BME280;42934;54.294;18.598;2022-07-06T03:24:20;101076.88;;;12.62;84.44
57048;BME280;42934;54.294;18.598;2022-07-06T03:26:50;101078.63;;;12.61;84.41
57048;BME280;42934;54.294;18.598;2022-07-06T03:29:20;101074.75;;;12.71;84.61
57048;BME280;42934;54.294;18.598;2022-07-06T03:31:51;101070.34;;;12.72;84.29
57048;BME280;42934;54.294;18.598;2022-07-06T03:34:21;101073.94;;;12.69;84.88
57048;BME280;42934;54.294;18.598;2022-07-06T03:36:50;101062.13;;;12.81;84.73
57048;BME280;42934;54.294;18.598;2022-07-06T03:39:20;101065.59;;;12.82;84.81
57048;BME280;42934;54.294;18.598;2022-07-06T03:41:50;101063.94;;;13.04;84.39
57048;BME280;42934;54.294;18.598;2022-07-06T03:44:20;101069.69;;;13.15;83.51
57048;BME280;42934;54.294;18.598;2022-07-06T03:46:51;101072.81;;;13.02;84.61
57048;BME280;42934;54.294;18.598;2022-07-06T03:49:24;101064.09;;;13.00;84.87
57048;BME280;42934;54.294;18.598;2022-07-06T03:51:57;101074.53;;;13.03;84.71
57048;BME280;42934;54.294;18.598;2022-07-06T03:54:29;101077.16;;;13.03;85.20
57048;BME280;42934;54.294;18.598;2022-07-06T03:56:59;101068.97;;;13.10;84.76
57048;BME280;42934;54.294;18.598;2022-07-06T03:59:28;101071.22;;;12.98;85.40
57048;BME280;42934;54.294;18.598;2022-07-06T04:01:59;101071.34;;;13.18;84.32
57048;BME280;42934;54.294;18.598;2022-07-06T04:04:29;101074.31;;;13.09;85.58
57048;BME280;42934;54.294;18.598;2022-07-06T04:06:58;101076.06;;;13.08;85.83
57048;BME280;42934;54.294;18.598;2022-07-06T04:09:28;101075.75;;;13.17;85.54
57048;BME280;42934;54.294;18.598;2022-07-06T04:11:57;101077.97;;;13.30;85.00
57048;BME280;42934;54.294;18.598;2022-07-06T04:14:27;101076.41;;;13.24;85.86
57048;BME280;42934;54.294;18.598;2022-07-06T04:16:58;101064.78;;;13.30;85.46
57048;BME280;42934;54.294;18.598;2022-07-06T04:19:48;101071.50;;;13.38;85.02
57048;BME280;42934;54.294;18.598;2022-07-06T04:22:17;101068.41;;;13.51;84.84
57048;BME280;42934;54.294;18.598;2022-07-06T04:24:47;101063.16;;;13.49;85.19
57048;BME280;42934;54.294;18.598;2022-07-06T04:27:16;101066.50;;;13.54;84.87
57048;BME280;42934;54.294;18.598;2022-07-06T04:29:46;101059.44;;;13.55;86.05
57048;BME280;42934;54.294;18.598;2022-07-06T04:32:16;101069.06;;;13.56;86.16
57048;BME280;42934;54.294;18.598;2022-07-06T04:34:52;101061.84;;;13.61;86.59
57048;BME280;42934;54.294;18.598;2022-07-06T04:37:22;101056.06;;;13.73;85.50
57048;BME280;42934;54.294;18.598;2022-07-06T04:39:51;101059.88;;;13.66;86.08
57048;BME280;42934;54.294;18.598;2022-07-06T04:42:21;101050.13;;;13.68;86.04
57048;BME280;42934;54.294;18.598;2022-07-06T04:44:51;101060.44;;;13.74;85.87
57048;BME280;42934;54.294;18.598;2022-07-06T04:47:21;101049.16;;;13.71;86.42
57048;BME280;42934;54.294;18.598;2022-07-06T04:49:51;101042.94;;;13.72;86.54
57048;BME280;42934;54.294;18.598;2022-07-06T04:52:20;101040.19;;;13.75;86.55
57048;BME280;42934;54.294;18.598;2022-07-06T04:54:49;101036.63;;;13.98;86.01
57048;BME280;42934;54.294;18.598;2022-07-06T04:57:19;101037.06;;;14.09;85.92
57048;BME280;42934;54.294;18.598;2022-07-06T04:59:48;101023.69;;;14.34;85.37
57048;BME280;42934;54.294;18.598;2022-07-06T05:02:17;101013.31;;;14.29;85.36
57048;BME280;42934;54.294;18.598;2022-07-06T05:04:48;101026.50;;;14.51;84.92
57048;BME280;42934;54.294;18.598;2022-07-06T05:07:19;101022.31;;;14.66;84.32
57048;BME280;42934;54.294;18.598;2022-07-06T05:09:48;101021.59;;;14.83;83.67
57048;BME280;42934;54.294;18.598;2022-07-06T05:12:20;101022.25;;;14.88;82.75
57048;BME280;42934;54.294;18.598;2022-07-06T05:14:49;101013.03;;;14.97;82.75
57048;BME280;42934;54.294;18.598;2022-07-06T05:17:20;101026.56;;;15.10;81.77
57048;BME280;42934;54.294;18.598;2022-07-06T05:19:59;101028.56;;;15.05;81.58
57048;BME280;42934;54.294;18.598;2022-07-06T05:22:33;101023.22;;;15.06;80.90
57048;BME280;42934;54.294;18.598;2022-07-06T05:25:06;101025.06;;;15.04;81.10
57048;BME280;42934;54.294;18.598;2022-07-06T05:27:35;101023.63;;;15.16;80.70
57048;BME280;42934;54.294;18.598;2022-07-06T05:30:06;101023.56;;;15.36;80.85
57048;BME280;42934;54.294;18.598;2022-07-06T05:32:36;101015.34;;;15.42;79.70
57048;BME280;42934;54.294;18.598;2022-07-06T05:35:08;101015.94;;;15.68;79.08
57048;BME280;42934;54.294;18.598;2022-07-06T05:37:58;101021.19;;;15.87;78.18
57048;BME280;42934;54.294;18.598;2022-07-06T05:40:27;101015.41;;;16.15;77.78
57048;BME280;42934;54.294;18.598;2022-07-06T05:42:57;101017.44;;;16.45;77.52
57048;BME280;42934;54.294;18.598;2022-07-06T05:45:27;101017.75;;;16.39;76.50
57048;BME280;42934;54.294;18.598;2022-07-06T05:47:57;101021.16;;;16.23;75.49
57048;BME280;42934;54.294;18.598;2022-07-06T05:50:46;101025.84;;;16.35;75.83
57048;BME280;42934;54.294;18.598;2022-07-06T05:53:15;101011.34;;;16.60;75.37
57048;BME280;42934;54.294;18.598;2022-07-06T05:55:51;101018.47;;;16.75;74.54
57048;BME280;42934;54.294;18.598;2022-07-06T05:58:21;101017.19;;;17.00;74.13
57048;BME280;42934;54.294;18.598;2022-07-06T06:00:54;101016.63;;;17.11;72.66
57048;BME280;42934;54.294;18.598;2022-07-06T06:03:23;101007.19;;;17.05;72.39
57048;BME280;42934;54.294;18.598;2022-07-06T06:05:54;101008.56;;;16.96;72.17
57048;BME280;42934;54.294;18.598;2022-07-06T06:08:25;101007.03;;;17.08;72.83
57048;BME280;42934;54.294;18.598;2022-07-06T06:10:55;101011.50;;;17.08;72.26
57048;BME280;42934;54.294;18.598;2022-07-06T06:13:26;101008.66;;;16.95;72.82
57048;BME280;42934;54.294;18.598;2022-07-06T06:15:55;101005.16;;;16.94;72.30
57048;BME280;42934;54.294;18.598;2022-07-06T06:18:25;101002.16;;;17.00;72.69
57048;BME280;42934;54.294;18.598;2022-07-06T06:20:57;100996.09;;;17.14;73.03
57048;BME280;42934;54.294;18.598;2022-07-06T06:23:26;100987.63;;;17.08;72.68
57048;BME280;42934;54.294;18.598;2022-07-06T06:25:55;100991.13;;;17.08;71.67
57048;BME280;42934;54.294;18.598;2022-07-06T06:28:24;100987.63;;;17.08;71.73
57048;BME280;42934;54.294;18.598;2022-07-06T06:30:54;100991.91;;;17.26;70.94
57048;BME280;42934;54.294;18.598;2022-07-06T06:33:23;100991.16;;;17.40;69.80
57048;BME280;42934;54.294;18.598;2022-07-06T06:35:53;100993.81;;;17.40;70.51
57048;BME280;42934;54.294;18.598;2022-07-06T06:38:24;100995.34;;;17.44;70.08
57048;BME280;42934;54.294;18.598;2022-07-06T06:40:56;101005.13;;;17.59;70.25
57048;BME280;42934;54.294;18.598;2022-07-06T06:43:26;100988.66;;;17.68;70.76
57048;BME280;42934;54.294;18.598;2022-07-06T06:46:20;100991.91;;;17.74;71.53
57048;BME280;42934;54.294;18.598;2022-07-06T06:48:49;100991.47;;;17.97;69.97
57048;BME280;42934;54.294;18.598;2022-07-06T06:51:19;100986.38;;;18.08;69.14
57048;BME280;42934;54.294;18.598;2022-07-06T06:53:50;100979.31;;;17.93;64.85
57048;BME280;42934;54.294;18.598;2022-07-06T06:56:19;100974.94;;;17.92;66.03
57048;BME280;42934;54.294;18.598;2022-07-06T06:58:48;100981.53;;;18.01;66.02
57048;BME280;42934;54.294;18.598;2022-07-06T07:01:37;100978.59;;;18.05;65.30
57048;BME280;42934;54.294;18.598;2022-07-06T07:04:07;100975.50;;;18.13;65.31
57048;BME280;42934;54.294;18.598;2022-07-06T07:06:36;100981.03;;;18.24;64.02
57048;BME280;42934;54.294;18.598;2022-07-06T07:09:06;100984.44;;;18.26;63.00
57048;BME280;42934;54.294;18.598;2022-07-06T07:11:36;100971.47;;;18.36;64.23
57048;BME280;42934;54.294;18.598;2022-07-06T07:14:05;100980.31;;;18.51;64.99
57048;BME280;42934;54.294;18.598;2022-07-06T07:16:34;100978.41;;;18.67;64.62
57048;BME280;42934;54.294;18.598;2022-07-06T07:19:04;100974.31;;;18.61;63.99
57048;BME280;42934;54.294;18.598;2022-07-06T07:21:33;100976.75;;;18.80;62.77
57048;BME280;42934;54.294;18.598;2022-07-06T07:24:02;100973.78;;;18.85;61.76
57048;BME280;42934;54.294;18.598;2022-07-06T07:26:38;100977.31;;;19.00;62.72
57048;BME280;42934;54.294;18.598;2022-07-06T07:29:07;100979.28;;;19.25;59.94
57048;BME280;42934;54.294;18.598;2022-07-06T07:31:37;100968.66;;;19.11;60.27
57048;BME280;42934;54.294;18.598;2022-07-06T07:34:06;100968.47;;;19.14;60.80
57048;BME280;42934;54.294;18.598;2022-07-06T07:36:36;100964.00;;;19.00;60.04
57048;BME280;42934;54.294;18.598;2022-07-06T07:39:05;100967.94;;;18.80;59.95
57048;BME280;42934;54.294;18.598;2022-07-06T07:41:35;100970.28;;;18.99;60.26
57048;BME280;42934;54.294;18.598;2022-07-06T07:44:05;100961.38;;;19.41;58.13
57048;BME280;42934;54.294;18.598;2022-07-06T07:46:35;100971.88;;;19.71;54.69
57048;BME280;42934;54.294;18.598;2022-07-06T07:49:04;100977.69;;;19.49;54.27
57048;BME280;42934;54.294;18.598;2022-07-06T07:51:35;100973.50;;;19.60;55.21
57048;BME280;42934;54.294;18.598;2022-07-06T07:54:04;100977.44;;;19.81;54.37
57048;BME280;42934;54.294;18.598;2022-07-06T07:56:33;100973.13;;;19.66;53.89
57048;BME280;42934;54.294;18.598;2022-07-06T07:59:03;100975.38;;;19.31;53.55
57048;BME280;42934;54.294;18.598;2022-07-06T08:01:34;100976.97;;;20.14;52.58
57048;BME280;42934;54.294;18.598;2022-07-06T08:04:04;100969.16;;;20.64;51.47
57048;BME280;42934;54.294;18.598;2022-07-06T08:06:33;100979.19;;;20.48;50.51
57048;BME280;42934;54.294;18.598;2022-07-06T08:09:02;100974.56;;;20.37;49.99
57048;BME280;42934;54.294;18.598;2022-07-06T08:11:33;100977.31;;;20.10;50.75
57048;BME280;42934;54.294;18.598;2022-07-06T08:14:02;100980.97;;;20.34;50.32
57048;BME280;42934;54.294;18.598;2022-07-06T08:16:33;100974.75;;;20.74;50.55
57048;BME280;42934;54.294;18.598;2022-07-06T08:19:03;100972.34;;;20.43;49.90
57048;BME280;42934;54.294;18.598;2022-07-06T08:21:38;100975.00;;;20.31;50.46
57048;BME280;42934;54.294;18.598;2022-07-06T08:24:07;100978.50;;;20.18;51.47
57048;BME280;42934;54.294;18.598;2022-07-06T08:26:37;100973.34;;;20.03;50.53
57048;BME280;42934;54.294;18.598;2022-07-06T08:29:06;100973.38;;;19.76;52.00
57048;BME280;42934;54.294;18.598;2022-07-06T08:31:38;100969.09;;;19.73;50.23
57048;BME280;42934;54.294;18.598;2022-07-06T08:34:26;100961.47;;;20.34;51.31
57048;BME280;42934;54.294;18.598;2022-07-06T08:37:01;100955.41;;;20.45;49.34
57048;BME280;42934;54.294;18.598;2022-07-06T08:39:30;100954.22;;;20.49;48.33
57048;BME280;42934;54.294;18.598;2022-07-06T08:42:01;100962.34;;;20.47;47.58
57048;BME280;42934;54.294;18.598;2022-07-06T08:44:31;100950.88;;;20.96;47.91
57048;BME280;42934;54.294;18.598;2022-07-06T08:47:05;100955.66;;;21.17;48.19
57048;BME280;42934;54.294;18.598;2022-07-06T08:49:39;100946.47;;;21.21;48.53
57048;BME280;42934;54.294;18.598;2022-07-06T08:52:08;100953.16;;;21.39;46.97
57048;BME280;42934;54.294;18.598;2022-07-06T08:54:38;100953.31;;;21.12;47.56
57048;BME280;42934;54.294;18.598;2022-07-06T08:57:08;100951.88;;;20.70;47.50
57048;BME280;42934;54.294;18.598;2022-07-06T08:59:39;100944.28;;;20.89;48.38
57048;BME280;42934;54.294;18.598;2022-07-06T09:02:11;100946.00;;;20.77;47.23
57048;BME280;42934;54.294;18.598;2022-07-06T09:04:43;100955.97;;;20.62;48.71
57048;BME280;42934;54.294;18.598;2022-07-06T09:07:13;100947.28;;;20.33;48.66
57048;BME280;42934;54.294;18.598;2022-07-06T09:10:02;100968.66;;;20.72;49.75
57048;BME280;42934;54.294;18.598;2022-07-06T09:12:32;100966.91;;;20.45;46.97
57048;BME280;42934;54.294;18.598;2022-07-06T09:15:01;100983.22;;;20.28;48.07
57048;BME280;42934;54.294;18.598;2022-07-06T09:17:32;100988.38;;;19.35;50.40
57048;BME280;42934;54.294;18.598;2022-07-06T09:20:02;100989.41;;;19.47;50.37
57048;BME280;42934;54.294;18.598;2022-07-06T09:22:32;100997.69;;;19.57;52.28
57048;BME280;42934;54.294;18.598;2022-07-06T09:25:02;100992.75;;;19.50;51.77
57048;BME280;42934;54.294;18.598;2022-07-06T09:27:37;101001.03;;;19.32;53.16
57048;BME280;42934;54.294;18.598;2022-07-06T09:30:08;101001.56;;;18.95;53.70
57048;BME280;42934;54.294;18.598;2022-07-06T09:32:41;101000.91;;;18.92;53.87
57048;BME280;42934;54.294;18.598;2022-07-06T09:35:20;100998.97;;;19.08;54.25
57048;BME280;42934;54.294;18.598;2022-07-06T09:38:01;100996.88;;;19.13;54.67
57048;BME280;42934;54.294;18.598;2022-07-06T09:40:31;100997.88;;;19.54;54.54
57048;BME280;42934;54.294;18.598;2022-07-06T09:43:15;101000.06;;;20.28;51.58
57048;BME280;42934;54.294;18.598;2022-07-06T09:45:45;101006.72;;;20.08;51.00
57048;BME280;42934;54.294;18.598;2022-07-06T09:48:18;101007.28;;;20.13;49.48
57048;BME280;42934;54.294;18.598;2022-07-06T09:50:50;100999.84;;;20.44;50.13
57048;BME280;42934;54.294;18.598;2022-07-06T09:53:21;100997.38;;;20.68;50.22
57048;BME280;42934;54.294;18.598;2022-07-06T09:55:53;100991.97;;;21.19;48.53
57048;BME280;42934;54.294;18.598;2022-07-06T09:58:22;100990.38;;;21.17;48.17
57048;BME280;42934;54.294;18.598;2022-07-06T10:01:11;100982.56;;;21.87;47.64
57048;BME280;42934;54.294;18.598;2022-07-06T10:03:42;100979.88;;;22.58;45.55
57048;BME280;42934;54.294;18.598;2022-07-06T10:06:12;100970.88;;;23.38;43.49
57048;BME280;42934;54.294;18.598;2022-07-06T10:08:42;100978.91;;;24.45;41.02
57048;BME280;42934;54.294;18.598;2022-07-06T10:11:12;100974.16;;;25.99;37.38
57048;BME280;42934;54.294;18.598;2022-07-06T10:13:43;100974.84;;;27.88;34.31
57048;BME280;42934;54.294;18.598;2022-07-06T10:16:14;100979.94;;;28.53;33.01
57048;BME280;42934;54.294;18.598;2022-07-06T10:18:45;100980.75;;;28.71;30.70
57048;BME280;42934;54.294;18.598;2022-07-06T10:21:15;100987.53;;;27.05;32.15
57048;BME280;42934;54.294;18.598;2022-07-06T10:23:44;100992.69;;;26.98;32.55
57048;BME280;42934;54.294;18.598;2022-07-06T10:26:15;100987.91;;;26.82;32.85
57048;BME280;42934;54.294;18.598;2022-07-06T10:28:44;100985.91;;;26.27;34.21
57048;BME280;42934;54.294;18.598;2022-07-06T10:31:16;100987.09;;;26.72;34.46
57048;BME280;42934;54.294;18.598;2022-07-06T10:33:48;100988.41;;;26.68;34.94
57048;BME280;42934;54.294;18.598;2022-07-06T10:36:18;100982.50;;;26.92;35.03
57048;BME280;42934;54.294;18.598;2022-07-06T10:38:49;100982.13;;;26.77;36.18
57048;BME280;42934;54.294;18.598;2022-07-06T10:41:30;100977.50;;;26.40;37.30
57048;BME280;42934;54.294;18.598;2022-07-06T10:44:15;100973.50;;;25.37;39.52
57048;BME280;42934;54.294;18.598;2022-07-06T10:46:52;100981.16;;;25.42;40.19
57048;BME280;42934;54.294;18.598;2022-07-06T10:49:24;100969.59;;;25.11;38.42
57048;BME280;42934;54.294;18.598;2022-07-06T10:52:17;100994.88;;;23.50;42.58
57048;BME280;42934;54.294;18.598;2022-07-06T10:54:47;100994.63;;;23.42;43.51
57048;BME280;42934;54.294;18.598;2022-07-06T10:57:16;100998.91;;;23.22;44.70
57048;BME280;42934;54.294;18.598;2022-07-06T11:00:02;100995.09;;;22.91;44.83
57048;BME280;42934;54.294;18.598;2022-07-06T11:02:39;100999.78;;;22.31;45.10
57048;BME280;42934;54.294;18.598;2022-07-06T11:05:13;101000.63;;;23.01;43.93
57048;BME280;42934;54.294;18.598;2022-07-06T11:08:22;101001.22;;;23.27;43.23
57048;BME280;42934;54.294;18.598;2022-07-06T11:10:51;101004.16;;;23.24;41.42
57048;BME280;42934;54.294;18.598;2022-07-06T11:13:27;100999.41;;;23.82;42.38
57048;BME280;42934;54.294;18.598;2022-07-06T11:16:02;101001.31;;;23.91;41.18
57048;BME280;42934;54.294;18.598;2022-07-06T11:18:39;101005.75;;;23.81;42.02
57048;BME280;42934;54.294;18.598;2022-07-06T11:21:21;101012.63;;;23.51;42.53
57048;BME280;42934;54.294;18.598;2022-07-06T11:23:51;101017.25;;;23.72;43.70
57048;BME280;42934;54.294;18.598;2022-07-06T11:26:22;101006.22;;;23.97;41.10
57048;BME280;42934;54.294;18.598;2022-07-06T11:28:52;101011.66;;;23.52;40.62
57048;BME280;42934;54.294;18.598;2022-07-06T11:31:22;101009.47;;;23.46;41.08
57048;BME280;42934;54.294;18.598;2022-07-06T11:33:52;101007.38;;;23.50;42.78
57048;BME280;42934;54.294;18.598;2022-07-06T11:36:23;101003.91;;;23.04;42.84
57048;BME280;42934;54.294;18.598;2022-07-06T11:38:56;101000.81;;;22.75;42.93
57048;BME280;42934;54.294;18.598;2022-07-06T11:41:25;100998.19;;;22.98;44.83
57048;BME280;42934;54.294;18.598;2022-07-06T11:43:55;100995.00;;;22.93;43.67
57048;BME280;42934;54.294;18.598;2022-07-06T11:46:26;100993.28;;;23.37;43.13
57048;BME280;42934;54.294;18.598;2022-07-06T11:48:57;100989.75;;;23.47;43.17
57048;BME280;42934;54.294;18.598;2022-07-06T11:51:30;100987.69;;;23.28;46.00
57048;BME280;42934;54.294;18.598;2022-07-06T11:54:01;100991.63;;;23.24;43.00
57048;BME280;42934;54.294;18.598;2022-07-06T11:56:31;100984.78;;;23.31;43.67
57048;BME280;42934;54.294;18.598;2022-07-06T11:59:01;100987.59;;;23.85;42.80
57048;BME280;42934;54.294;18.598;2022-07-06T12:01:31;100987.09;;;23.13;44.06
57048;BME280;42934;54.294;18.598;2022-07-06T12:04:01;100988.88;;;22.79;43.75
57048;BME280;42934;54.294;18.598;2022-07-06T12:06:33;100991.56;;;22.79;43.90
57048;BME280;42934;54.294;18.598;2022-07-06T12:09:10;100987.19;;;23.34;43.48
57048;BME280;42934;54.294;18.598;2022-07-06T12:11:39;100988.53;;;22.73;43.75
57048;BME280;42934;54.294;18.598;2022-07-06T12:14:17;100991.44;;;22.70;44.03
57048;BME280;42934;54.294;18.598;2022-07-06T12:16:48;100989.53;;;23.05;43.98
57048;BME280;42934;54.294;18.598;2022-07-06T12:19:18;100993.63;;;23.43;42.31
57048;BME280;42934;54.294;18.598;2022-07-06T12:21:52;100980.75;;;23.15;43.40
57048;BME280;42934;54.294;18.598;2022-07-06T12:24:24;100991.03;;;22.40;43.43
57048;BME280;42934;54.294;18.598;2022-07-06T12:26:56;100995.00;;;21.75;43.16
57048;BME280;42934;54.294;18.598;2022-07-06T12:29:26;100995.34;;;21.34;43.65
57048;BME280;42934;54.294;18.598;2022-07-06T12:31:56;101001.56;;;21.22;45.76
57048;BME280;42934;54.294;18.598;2022-07-06T12:34:25;101003.53;;;21.07;45.90
57048;BME280;42934;54.294;18.598;2022-07-06T12:36:58;101013.38;;;21.06;46.96
57048;BME280;42934;54.294;18.598;2022-07-06T12:39:42;101013.16;;;20.71;49.48
57048;BME280;42934;54.294;18.598;2022-07-06T12:42:14;101015.56;;;20.36;50.60
57048;BME280;42934;54.294;18.598;2022-07-06T12:44:48;101013.66;;;20.11;51.48
57048;BME280;42934;54.294;18.598;2022-07-06T12:47:19;101017.16;;;20.51;51.11
57048;BME280;42934;54.294;18.598;2022-07-06T12:50:04;101000.25;;;20.65;50.36
57048;BME280;42934;54.294;18.598;2022-07-06T12:52:35;101003.13;;;20.62;50.40
57048;BME280;42934;54.294;18.598;2022-07-06T12:55:06;101004.59;;;20.79;51.33
57048;BME280;42934;54.294;18.598;2022-07-06T12:57:45;101007.38;;;20.90;50.88
57048;BME280;42934;54.294;18.598;2022-07-06T13:00:15;101002.50;;;20.71;51.32
57048;BME280;42934;54.294;18.598;2022-07-06T13:02:46;101002.38;;;20.98;50.53